sensor_id;sensor_type;location;lat;lon;timestamp;P1;durP1;ratioP1;P2;durP2;ratioP2
48859;SDS011;34679;51.436;-2.518;2024-03-23T00:58:11;13.25;;;1.65;;
48859;SDS011;34679;51.436;-2.518;2024-03-23T03:30:27;17.35;;;2.13;;
48859;SDS011;34679;51.436;-2.518;2024-03-23T03:32:53;17.55;;;2.50;;
48859;SDS011;34679;51.436;-2.518;2024-03-23T03:35:19;12.48;;;2.25;;
48859;SDS011;34679;51.436;-2.518;2024-03-23T03:37:45;12.27;;;2.22;;
48859;SDS011;34679;51.436;-2.518;2024-03-23T03:40:11;12.48;;;1.83;;
48859;SDS011;34679;51.436;-2.518;2024-03-23T03:42:39;13.85;;;2.10;;
48859;SDS011;34679;51.436;-2.518;2024-03-23T03:45:06;17.13;;;2.25;;
48859;SDS011;34679;51.436;-2.518;2024-03-23T03:47:32;14.88;;;2.15;;
48859;SDS011;34679;51.436;-2.518;2024-03-23T03:49:58;17.80;;;3.13;;
48859;SDS011;34679;51.436;-2.518;2024-03-23T03:52:23;23.30;;;2.22;;
48859;SDS011;34679;51.436;-2.518;2024-03-23T03:54:49;21.95;;;2.25;;
48859;SDS011;34679;51.436;-2.518;2024-03-23T04:04:44;10.63;;;2.22;;
48859;SDS011;34679;51.436;-2.518;2024-03-23T04:07:21;13.68;;;1.83;;
48859;SDS011;34679;51.436;-2.518;2024-03-23T04:14:11;18.27;;;1.98;;
48859;SDS011;34679;51.436;-2.518;2024-03-23T04:17:52;11.05;;;1.58;;
48859;SDS011;34679;51.436;-2.518;2024-03-23T06:02:12;16.92;;;1.83;;
48859;SDS011;34679;51.436;-2.518;2024-03-23T06:04:39;13.30;;;2.40;;
48859;SDS011;34679;51.436;-2.518;2024-03-23T06:07:05;17.20;;;3.05;;
48859;SDS011;34679;51.436;-2.518;2024-03-23T06:09:38;24.17;;;3.15;;
48859;SDS011;34679;51.436;-2.518;2024-03-23T06:27:40;19.95;;;3.55;;
48859;SDS011;34679;51.436;-2.518;2024-03-23T06:30:06;17.00;;;1.85;;
48859;SDS011;34679;51.436;-2.518;2024-03-23T06:32:32;18.40;;;3.92;;
48859;SDS011;34679;51.436;-2.518;2024-03-23T06:34:58;17.50;;;1.83;;
48859;SDS011;34679;51.436;-2.518;2024-03-23T06:37:24;19.08;;;3.63;;
48859;SDS011;34679;51.436;-2.518;2024-03-23T06:39:51;15.45;;;2.47;;
48859;SDS011;34679;51.436;-2.518;2024-03-23T06:42:16;18.85;;;2.80;;
48859;SDS011;34679;51.436;-2.518;2024-03-23T06:44:43;15.55;;;2.60;;
48859;SDS011;34679;51.436;-2.518;2024-03-23T06:47:08;18.27;;;2.20;;
48859;SDS011;34679;51.436;-2.518;2024-03-23T06:49:34;20.83;;;4.32;;
48859;SDS011;34679;51.436;-2.518;2024-03-23T06:52:00;9.10;;;1.52;;
48859;SDS011;34679;51.436;-2.518;2024-03-23T06:54:25;27.30;;;3.65;;
48859;SDS011;34679;51.436;-2.518;2024-03-23T06:56:51;24.55;;;2.67;;
48859;SDS011;34679;51.436;-2.518;2024-03-23T06:59:17;11.40;;;2.20;;
48859;SDS011;34679;51.436;-2.518;2024-03-23T07:01:42;14.80;;;2.15;;
48859;SDS011;34679;51.436;-2.518;2024-03-23T07:04:08;17.23;;;2.47;;
48859;SDS011;34679;51.436;-2.518;2024-03-23T07:06:34;13.52;;;2.03;;
48859;SDS011;34679;51.436;-2.518;2024-03-23T07:09:07;11.73;;;2.30;;
48859;SDS011;34679;51.436;-2.518;2024-03-23T07:11:32;13.40;;;2.15;;
48859;SDS011;34679;51.436;-2.518;2024-03-23T07:13:58;13.38;;;2.00;;
48859;SDS011;34679;51.436;-2.518;2024-03-23T07:16:24;15.65;;;2.90;;
48859;SDS011;34679;51.436;-2.518;2024-03-23T07:18:52;17.65;;;2.28;;
48859;SDS011;34679;51.436;-2.518;2024-03-23T07:21:17;13.68;;;2.30;;
48859;SDS011;34679;51.436;-2.518;2024-03-23T07:23:43;8.75;;;1.67;;
48859;SDS011;34679;51.436;-2.518;2024-03-23T07:26:12;17.20;;;3.25;;
48859;SDS011;34679;51.436;-2.518;2024-03-23T07:28:37;17.55;;;2.15;;
48859;SDS011;34679;51.436;-2.518;2024-03-23T07:31:08;15.55;;;2.40;;
48859;SDS011;34679;51.436;-2.518;2024-03-23T07:33:36;18.13;;;3.20;;
48859;SDS011;34679;51.436;-2.518;2024-03-23T07:36:03;16.35;;;2.55;;
48859;SDS011;34679;51.436;-2.518;2024-03-23T07:38:29;12.68;;;2.03;;
48859;SDS011;34679;51.436;-2.518;2024-03-23T07:43:56;16.95;;;2.63;;
48859;SDS011;34679;51.436;-2.518;2024-03-23T07:46:22;19.23;;;2.58;;
48859;SDS011;34679;51.436;-2.518;2024-03-23T07:48:47;13.77;;;2.20;;
48859;SDS011;34679;51.436;-2.518;2024-03-23T07:51:20;18.75;;;2.03;;
48859;SDS011;34679;51.436;-2.518;2024-03-23T07:53:47;13.55;;;1.80;;
48859;SDS011;34679;51.436;-2.518;2024-03-23T07:56:17;16.30;;;2.78;;
48859;SDS011;34679;51.436;-2.518;2024-03-23T07:58:44;15.65;;;2.88;;
48859;SDS011;34679;51.436;-2.518;2024-03-23T08:01:13;17.70;;;3.03;;
48859;SDS011;34679;51.436;-2.518;2024-03-23T08:03:45;14.55;;;2.40;;
48859;SDS011;34679;51.436;-2.518;2024-03-23T08:06:11;10.27;;;1.95;;
48859;SDS011;34679;51.436;-2.518;2024-03-23T08:08:39;14.93;;;2.25;;
48859;SDS011;34679;51.436;-2.518;2024-03-23T08:11:05;10.60;;;2.33;;
48859;SDS011;34679;51.436;-2.518;2024-03-23T08:13:32;11.98;;;1.92;;
48859;SDS011;34679;51.436;-2.518;2024-03-23T08:16:02;14.90;;;1.58;;
48859;SDS011;34679;51.436;-2.518;2024-03-23T08:18:28;18.40;;;2.47;;
48859;SDS011;34679;51.436;-2.518;2024-03-23T08:21:04;8.45;;;1.90;;
48859;SDS011;34679;51.436;-2.518;2024-03-23T08:23:31;12.85;;;2.35;;
48859;SDS011;34679;51.436;-2.518;2024-03-23T08:26:08;17.60;;;3.17;;
48859;SDS011;34679;51.436;-2.518;2024-03-23T08:28:35;13.30;;;1.80;;
48859;SDS011;34679;51.436;-2.518;2024-03-23T08:31:02;17.17;;;2.08;;
48859;SDS011;34679;51.436;-2.518;2024-03-23T08:33:30;13.38;;;2.33;;
48859;SDS011;34679;51.436;-2.518;2024-03-23T08:36:00;14.90;;;1.67;;
48859;SDS011;34679;51.436;-2.518;2024-03-23T08:38:27;19.63;;;2.50;;
48859;SDS011;34679;51.436;-2.518;2024-03-23T08:41:00;11.75;;;1.75;;
48859;SDS011;34679;51.436;-2.518;2024-03-23T08:43:31;15.00;;;2.25;;
48859;SDS011;34679;51.436;-2.518;2024-03-23T08:48:34;14.63;;;3.08;;
48859;SDS011;34679;51.436;-2.518;2024-03-23T08:51:05;13.50;;;2.13;;
48859;SDS011;34679;51.436;-2.518;2024-03-23T08:53:32;14.55;;;3.33;;
48859;SDS011;34679;51.436;-2.518;2024-03-23T08:55:58;13.27;;;1.83;;
48859;SDS011;34679;51.436;-2.518;2024-03-23T08:58:26;20.20;;;2.78;;
48859;SDS011;34679;51.436;-2.518;2024-03-23T09:00:53;9.93;;;2.88;;
48859;SDS011;34679;51.436;-2.518;2024-03-23T09:03:21;15.20;;;2.40;;
48859;SDS011;34679;51.436;-2.518;2024-03-23T09:05:50;12.30;;;1.90;;
48859;SDS011;34679;51.436;-2.518;2024-03-23T09:08:17;6.65;;;1.52;;
48859;SDS011;34679;51.436;-2.518;2024-03-23T09:10:43;13.80;;;2.13;;
48859;SDS011;34679;51.436;-2.518;2024-03-23T09:13:09;7.40;;;1.73;;
48859;SDS011;34679;51.436;-2.518;2024-03-23T09:15:36;11.82;;;2.28;;
48859;SDS011;34679;51.436;-2.518;2024-03-23T09:18:03;7.88;;;1.60;;
48859;SDS011;34679;51.436;-2.518;2024-03-23T09:20:29;10.35;;;1.98;;
48859;SDS011;34679;51.436;-2.518;2024-03-23T09:22:58;13.10;;;1.80;;
48859;SDS011;34679;51.436;-2.518;2024-03-23T09:25:23;10.90;;;3.55;;
48859;SDS011;34679;51.436;-2.518;2024-03-23T09:27:50;11.68;;;1.90;;
48859;SDS011;34679;51.436;-2.518;2024-03-23T09:30:16;9.98;;;1.90;;
48859;SDS011;34679;51.436;-2.518;2024-03-23T09:32:42;6.50;;;1.88;;
48859;SDS011;34679;51.436;-2.518;2024-03-23T09:35:09;13.25;;;2.60;;
48859;SDS011;34679;51.436;-2.518;2024-03-23T09:37:35;11.32;;;2.22;;
48859;SDS011;34679;51.436;-2.518;2024-03-23T09:40:01;11.35;;;2.22;;
48859;SDS011;34679;51.436;-2.518;2024-03-23T09:42:27;12.35;;;2.20;;
48859;SDS011;34679;51.436;-2.518;2024-03-23T09:44:53;13.98;;;2.42;;
48859;SDS011;34679;51.436;-2.518;2024-03-23T09:47:22;16.70;;;2.35;;
48859;SDS011;34679;51.436;-2.518;2024-03-23T09:49:50;10.50;;;2.08;;
48859;SDS011;34679;51.436;-2.518;2024-03-23T09:52:15;10.80;;;1.70;;
48859;SDS011;34679;51.436;-2.518;2024-03-23T09:54:41;12.82;;;1.98;;
48859;SDS011;34679;51.436;-2.518;2024-03-23T09:57:07;16.58;;;2.63;;
48859;SDS011;34679;51.436;-2.518;2024-03-23T09:59:33;8.32;;;1.80;;
48859;SDS011;34679;51.436;-2.518;2024-03-23T10:01:59;11.13;;;1.83;;
48859;SDS011;34679;51.436;-2.518;2024-03-23T10:04:39;9.05;;;1.55;;
48859;SDS011;34679;51.436;-2.518;2024-03-23T10:07:15;8.77;;;1.42;;
48859;SDS011;34679;51.436;-2.518;2024-03-23T10:09:44;6.68;;;1.17;;
48859;SDS011;34679;51.436;-2.518;2024-03-23T10:12:12;10.52;;;2.15;;
48859;SDS011;34679;51.436;-2.518;2024-03-23T10:14:41;12.57;;;1.88;;
48859;SDS011;34679;51.436;-2.518;2024-03-23T10:17:14;7.13;;;1.27;;
48859;SDS011;34679;51.436;-2.518;2024-03-23T10:19:47;7.20;;;1.52;;
48859;SDS011;34679;51.436;-2.518;2024-03-23T10:22:23;10.32;;;1.58;;
48859;SDS011;34679;51.436;-2.518;2024-03-23T10:24:49;4.40;;;1.10;;
48859;SDS011;34679;51.436;-2.518;2024-03-23T10:27:19;6.53;;;1.13;;
48859;SDS011;34679;51.436;-2.518;2024-03-23T10:29:46;5.53;;;1.30;;
48859;SDS011;34679;51.436;-2.518;2024-03-23T10:32:13;4.68;;;1.13;;
48859;SDS011;34679;51.436;-2.518;2024-03-23T10:34:40;9.27;;;1.83;;
48859;SDS011;34679;51.436;-2.518;2024-03-23T10:37:06;15.90;;;2.53;;
48859;SDS011;34679;51.436;-2.518;2024-03-23T10:39:36;8.52;;;1.27;;
48859;SDS011;34679;51.436;-2.518;2024-03-23T10:42:06;8.30;;;1.42;;
48859;SDS011;34679;51.436;-2.518;2024-03-23T10:44:33;8.43;;;0.95;;
48859;SDS011;34679;51.436;-2.518;2024-03-23T10:47:03;7.50;;;1.17;;
48859;SDS011;34679;51.436;-2.518;2024-03-23T10:49:31;10.68;;;2.25;;
48859;SDS011;34679;51.436;-2.518;2024-03-23T10:52:00;4.10;;;1.23;;
48859;SDS011;34679;51.436;-2.518;2024-03-23T10:54:30;4.05;;;0.90;;
48859;SDS011;34679;51.436;-2.518;2024-03-23T10:57:04;8.63;;;1.50;;
48859;SDS011;34679;51.436;-2.518;2024-03-23T10:59:34;9.23;;;1.52;;
48859;SDS011;34679;51.436;-2.518;2024-03-23T11:02:03;11.40;;;1.50;;
48859;SDS011;34679;51.436;-2.518;2024-03-23T11:04:29;8.82;;;1.10;;
48859;SDS011;34679;51.436;-2.518;2024-03-23T11:10:25;2.67;;;0.50;;
48859;SDS011;34679;51.436;-2.518;2024-03-23T11:12:58;4.15;;;0.55;;
48859;SDS011;34679;51.436;-2.518;2024-03-23T11:15:49;3.63;;;0.80;;
48859;SDS011;34679;51.436;-2.518;2024-03-23T11:18:20;3.80;;;0.88;;
48859;SDS011;34679;51.436;-2.518;2024-03-23T11:20:46;5.20;;;1.05;;
48859;SDS011;34679;51.436;-2.518;2024-03-23T11:23:27;8.40;;;1.17;;
48859;SDS011;34679;51.436;-2.518;2024-03-23T11:25:53;6.05;;;1.05;;
48859;SDS011;34679;51.436;-2.518;2024-03-23T11:28:19;6.93;;;2.08;;
48859;SDS011;34679;51.436;-2.518;2024-03-23T11:30:45;14.15;;;2.20;;
48859;SDS011;34679;51.436;-2.518;2024-03-23T11:33:11;12.48;;;2.25;;
48859;SDS011;34679;51.436;-2.518;2024-03-23T11:35:38;11.75;;;2.05;;
48859;SDS011;34679;51.436;-2.518;2024-03-23T11:40:35;4.85;;;0.77;;
48859;SDS011;34679;51.436;-2.518;2024-03-23T11:43:03;5.68;;;1.30;;
48859;SDS011;34679;51.436;-2.518;2024-03-23T11:45:33;3.15;;;0.88;;
48859;SDS011;34679;51.436;-2.518;2024-03-23T11:48:01;2.22;;;0.50;;
48859;SDS011;34679;51.436;-2.518;2024-03-23T11:50:31;3.55;;;0.80;;
48859;SDS011;34679;51.436;-2.518;2024-03-23T11:55:58;3.22;;;0.73;;
48859;SDS011;34679;51.436;-2.518;2024-03-23T11:58:26;4.65;;;0.50;;
48859;SDS011;34679;51.436;-2.518;2024-03-23T12:01:02;2.45;;;0.63;;
48859;SDS011;34679;51.436;-2.518;2024-03-23T12:03:30;3.30;;;0.80;;
48859;SDS011;34679;51.436;-2.518;2024-03-23T12:05:58;4.38;;;0.50;;
48859;SDS011;34679;51.436;-2.518;2024-03-23T12:08:33;3.75;;;0.88;;
48859;SDS011;34679;51.436;-2.518;2024-03-23T12:11:13;3.50;;;0.60;;
48859;SDS011;34679;51.436;-2.518;2024-03-23T12:13:41;3.95;;;0.80;;
48859;SDS011;34679;51.436;-2.518;2024-03-23T12:16:29;1.95;;;0.57;;
48859;SDS011;34679;51.436;-2.518;2024-03-23T12:18:54;4.78;;;1.40;;
48859;SDS011;34679;51.436;-2.518;2024-03-23T12:21:30;7.22;;;1.95;;
48859;SDS011;34679;51.436;-2.518;2024-03-23T12:23:56;7.00;;;0.80;;
48859;SDS011;34679;51.436;-2.518;2024-03-23T12:26:23;5.63;;;1.38;;
48859;SDS011;34679;51.436;-2.518;2024-03-23T12:28:49;5.32;;;0.90;;
48859;SDS011;34679;51.436;-2.518;2024-03-23T12:31:14;8.15;;;1.00;;
48859;SDS011;34679;51.436;-2.518;2024-03-23T12:33:40;2.70;;;1.00;;
48859;SDS011;34679;51.436;-2.518;2024-03-23T12:36:06;2.38;;;0.70;;
48859;SDS011;34679;51.436;-2.518;2024-03-23T12:38:32;2.03;;;1.10;;
48859;SDS011;34679;51.436;-2.518;2024-03-23T12:40:57;1.17;;;0.43;;
48859;SDS011;34679;51.436;-2.518;2024-03-23T12:43:23;1.35;;;0.35;;
48859;SDS011;34679;51.436;-2.518;2024-03-23T12:45:49;2.15;;;0.40;;
48859;SDS011;34679;51.436;-2.518;2024-03-23T12:48:18;2.95;;;0.70;;
48859;SDS011;34679;51.436;-2.518;2024-03-23T12:50:44;5.45;;;0.65;;
48859;SDS011;34679;51.436;-2.518;2024-03-23T12:53:09;2.15;;;0.45;;
48859;SDS011;34679;51.436;-2.518;2024-03-23T12:55:35;6.20;;;1.58;;
48859;SDS011;34679;51.436;-2.518;2024-03-23T12:58:01;3.55;;;0.63;;
48859;SDS011;34679;51.436;-2.518;2024-03-23T13:00:26;2.28;;;0.65;;
48859;SDS011;34679;51.436;-2.518;2024-03-23T13:02:52;3.50;;;0.80;;
48859;SDS011;34679;51.436;-2.518;2024-03-23T13:05:18;3.88;;;0.73;;
48859;SDS011;34679;51.436;-2.518;2024-03-23T13:07:44;5.05;;;0.73;;
48859;SDS011;34679;51.436;-2.518;2024-03-23T13:10:09;2.38;;;0.70;;
48859;SDS011;34679;51.436;-2.518;2024-03-23T13:12:35;5.45;;;0.70;;
48859;SDS011;34679;51.436;-2.518;2024-03-23T13:15:01;4.80;;;0.63;;
48859;SDS011;34679;51.436;-2.518;2024-03-23T13:17:27;5.10;;;0.88;;
48859;SDS011;34679;51.436;-2.518;2024-03-23T13:19:53;3.08;;;0.75;;
48859;SDS011;34679;51.436;-2.518;2024-03-23T13:22:20;2.42;;;0.60;;
48859;SDS011;34679;51.436;-2.518;2024-03-23T13:24:46;2.38;;;0.65;;
48859;SDS011;34679;51.436;-2.518;2024-03-23T13:27:11;3.85;;;0.63;;
48859;SDS011;34679;51.436;-2.518;2024-03-23T13:29:37;5.82;;;0.73;;
48859;SDS011;34679;51.436;-2.518;2024-03-23T13:32:04;5.13;;;0.88;;
48859;SDS011;34679;51.436;-2.518;2024-03-23T13:34:30;9.15;;;1.65;;
48859;SDS011;34679;51.436;-2.518;2024-03-23T13:36:55;4.85;;;0.57;;
48859;SDS011;34679;51.436;-2.518;2024-03-23T13:39:23;4.05;;;0.70;;
48859;SDS011;34679;51.436;-2.518;2024-03-23T13:41:49;5.38;;;0.82;;
48859;SDS011;34679;51.436;-2.518;2024-03-23T13:44:14;4.93;;;0.68;;
48859;SDS011;34679;51.436;-2.518;2024-03-23T13:46:41;4.30;;;0.60;;
48859;SDS011;34679;51.436;-2.518;2024-03-23T13:49:08;3.80;;;0.80;;
48859;SDS011;34679;51.436;-2.518;2024-03-23T13:51:49;5.00;;;0.88;;
48859;SDS011;34679;51.436;-2.518;2024-03-23T13:54:15;5.65;;;0.90;;
48859;SDS011;34679;51.436;-2.518;2024-03-23T13:56:40;3.05;;;0.93;;
48859;SDS011;34679;51.436;-2.518;2024-03-23T13:59:06;6.05;;;0.80;;
48859;SDS011;34679;51.436;-2.518;2024-03-23T14:01:32;4.43;;;0.73;;
48859;SDS011;34679;51.436;-2.518;2024-03-23T14:03:57;3.53;;;0.73;;
48859;SDS011;34679;51.436;-2.518;2024-03-23T14:06:23;3.90;;;0.88;;
48859;SDS011;34679;51.436;-2.518;2024-03-23T14:08:49;9.65;;;1.33;;
48859;SDS011;34679;51.436;-2.518;2024-03-23T14:11:15;5.75;;;0.98;;
48859;SDS011;34679;51.436;-2.518;2024-03-23T14:13:45;3.05;;;0.70;;
48859;SDS011;34679;51.436;-2.518;2024-03-23T14:16:11;3.90;;;0.85;;
48859;SDS011;34679;51.436;-2.518;2024-03-23T14:18:37;3.85;;;0.60;;
48859;SDS011;34679;51.436;-2.518;2024-03-23T14:21:02;3.60;;;0.98;;
48859;SDS011;34679;51.436;-2.518;2024-03-23T14:23:29;4.50;;;1.10;;
48859;SDS011;34679;51.436;-2.518;2024-03-23T14:25:59;2.63;;;0.77;;
48859;SDS011;34679;51.436;-2.518;2024-03-23T14:28:25;1.40;;;0.90;;
48859;SDS011;34679;51.436;-2.518;2024-03-23T14:30:51;4.38;;;0.80;;
48859;SDS011;34679;51.436;-2.518;2024-03-23T14:33:20;6.47;;;0.98;;
48859;SDS011;34679;51.436;-2.518;2024-03-23T14:35:52;3.55;;;0.90;;
48859;SDS011;34679;51.436;-2.518;2024-03-23T14:38:22;6.63;;;0.50;;
48859;SDS011;34679;51.436;-2.518;2024-03-23T14:40:48;1.35;;;0.55;;
48859;SDS011;34679;51.436;-2.518;2024-03-23T14:43:14;3.88;;;0.60;;
48859;SDS011;34679;51.436;-2.518;2024-03-23T14:45:49;4.90;;;0.70;;
48859;SDS011;34679;51.436;-2.518;2024-03-23T14:48:36;3.15;;;0.85;;
48859;SDS011;34679;51.436;-2.518;2024-03-23T14:51:02;4.60;;;0.93;;
48859;SDS011;34679;51.436;-2.518;2024-03-23T14:53:32;2.97;;;0.63;;
48859;SDS011;34679;51.436;-2.518;2024-03-23T14:55:58;4.15;;;0.63;;
48859;SDS011;34679;51.436;-2.518;2024-03-23T14:58:25;2.58;;;0.80;;
48859;SDS011;34679;51.436;-2.518;2024-03-23T15:00:51;6.28;;;0.70;;
48859;SDS011;34679;51.436;-2.518;2024-03-23T15:03:17;2.28;;;0.57;;
48859;SDS011;34679;51.436;-2.518;2024-03-23T15:06:04;6.68;;;0.95;;
48859;SDS011;34679;51.436;-2.518;2024-03-23T15:08:29;3.22;;;0.80;;
48859;SDS011;34679;51.436;-2.518;2024-03-23T15:10:58;3.35;;;0.88;;
48859;SDS011;34679;51.436;-2.518;2024-03-23T15:13:25;4.70;;;1.52;;
48859;SDS011;34679;51.436;-2.518;2024-03-23T15:15:51;3.97;;;1.20;;
48859;SDS011;34679;51.436;-2.518;2024-03-23T15:18:17;2.92;;;1.48;;
48859;SDS011;34679;51.436;-2.518;2024-03-23T15:20:56;3.50;;;0.80;;
48859;SDS011;34679;51.436;-2.518;2024-03-23T15:23:27;3.45;;;0.93;;
48859;SDS011;34679;51.436;-2.518;2024-03-23T15:25:56;1.90;;;0.70;;
48859;SDS011;34679;51.436;-2.518;2024-03-23T15:28:23;6.43;;;2.17;;
48859;SDS011;34679;51.436;-2.518;2024-03-23T15:30:48;3.05;;;1.00;;
48859;SDS011;34679;51.436;-2.518;2024-03-23T15:33:14;3.28;;;1.10;;
48859;SDS011;34679;51.436;-2.518;2024-03-23T15:35:40;3.80;;;1.05;;
48859;SDS011;34679;51.436;-2.518;2024-03-23T15:38:06;3.00;;;0.93;;
48859;SDS011;34679;51.436;-2.518;2024-03-23T15:40:31;4.07;;;0.55;;
48859;SDS011;34679;51.436;-2.518;2024-03-23T15:42:57;2.80;;;0.73;;
48859;SDS011;34679;51.436;-2.518;2024-03-23T15:45:23;6.55;;;1.20;;
48859;SDS011;34679;51.436;-2.518;2024-03-23T15:47:48;2.80;;;0.73;;
48859;SDS011;34679;51.436;-2.518;2024-03-23T15:50:14;7.03;;;1.02;;
48859;SDS011;34679;51.436;-2.518;2024-03-23T15:52:40;7.47;;;1.35;;
48859;SDS011;34679;51.436;-2.518;2024-03-23T15:55:06;3.50;;;0.98;;
48859;SDS011;34679;51.436;-2.518;2024-03-23T15:57:35;3.55;;;0.77;;
48859;SDS011;34679;51.436;-2.518;2024-03-23T16:00:01;3.45;;;1.10;;
48859;SDS011;34679;51.436;-2.518;2024-03-23T16:02:27;8.82;;;1.00;;
48859;SDS011;34679;51.436;-2.518;2024-03-23T16:04:53;2.05;;;0.70;;
48859;SDS011;34679;51.436;-2.518;2024-03-23T16:07:19;4.38;;;1.13;;
48859;SDS011;34679;51.436;-2.518;2024-03-23T16:09:46;4.57;;;1.10;;
48859;SDS011;34679;51.436;-2.518;2024-03-23T16:12:11;6.72;;;1.30;;
48859;SDS011;34679;51.436;-2.518;2024-03-23T16:14:37;4.47;;;1.55;;
48859;SDS011;34679;51.436;-2.518;2024-03-23T16:17:03;4.10;;;1.58;;
48859;SDS011;34679;51.436;-2.518;2024-03-23T16:19:28;4.35;;;1.45;;
48859;SDS011;34679;51.436;-2.518;2024-03-23T16:21:54;5.18;;;1.38;;
48859;SDS011;34679;51.436;-2.518;2024-03-23T16:24:20;5.25;;;1.15;;
48859;SDS011;34679;51.436;-2.518;2024-03-23T16:26:46;6.05;;;1.38;;
48859;SDS011;34679;51.436;-2.518;2024-03-23T16:29:12;9.05;;;0.88;;
48859;SDS011;34679;51.436;-2.518;2024-03-23T16:31:38;4.82;;;1.30;;
48859;SDS011;34679;51.436;-2.518;2024-03-23T16:34:03;5.53;;;1.13;;
48859;SDS011;34679;51.436;-2.518;2024-03-23T16:36:29;2.85;;;0.80;;
48859;SDS011;34679;51.436;-2.518;2024-03-23T16:38:55;5.35;;;0.90;;
48859;SDS011;34679;51.436;-2.518;2024-03-23T16:41:20;4.22;;;1.45;;
48859;SDS011;34679;51.436;-2.518;2024-03-23T16:43:46;2.85;;;1.00;;
48859;SDS011;34679;51.436;-2.518;2024-03-23T16:46:12;6.18;;;0.95;;
48859;SDS011;34679;51.436;-2.518;2024-03-23T16:48:41;4.80;;;1.75;;
48859;SDS011;34679;51.436;-2.518;2024-03-23T16:51:11;5.97;;;1.05;;
48859;SDS011;34679;51.436;-2.518;2024-03-23T16:53:37;8.07;;;1.20;;
48859;SDS011;34679;51.436;-2.518;2024-03-23T16:56:05;2.55;;;0.85;;
48859;SDS011;34679;51.436;-2.518;2024-03-23T16:58:38;5.45;;;1.10;;
48859;SDS011;34679;51.436;-2.518;2024-03-23T17:01:09;6.43;;;1.10;;
48859;SDS011;34679;51.436;-2.518;2024-03-23T17:03:51;4.50;;;1.08;;
48859;SDS011;34679;51.436;-2.518;2024-03-23T17:06:17;3.67;;;1.30;;
48859;SDS011;34679;51.436;-2.518;2024-03-23T17:08:44;6.05;;;1.58;;
48859;SDS011;34679;51.436;-2.518;2024-03-23T17:11:13;4.53;;;1.17;;
48859;SDS011;34679;51.436;-2.518;2024-03-23T17:13:39;3.95;;;1.27;;
48859;SDS011;34679;51.436;-2.518;2024-03-23T17:16:05;6.28;;;1.20;;
48859;SDS011;34679;51.436;-2.518;2024-03-23T17:18:31;4.07;;;0.95;;
48859;SDS011;34679;51.436;-2.518;2024-03-23T17:20:57;5.70;;;1.10;;
48859;SDS011;34679;51.436;-2.518;2024-03-23T17:23:23;7.97;;;1.25;;
48859;SDS011;34679;51.436;-2.518;2024-03-23T17:25:53;7.63;;;1.05;;
48859;SDS011;34679;51.436;-2.518;2024-03-23T17:28:18;10.82;;;1.67;;
48859;SDS011;34679;51.436;-2.518;2024-03-23T17:30:45;5.70;;;1.20;;
48859;SDS011;34679;51.436;-2.518;2024-03-23T17:33:12;4.50;;;1.23;;
48859;SDS011;34679;51.436;-2.518;2024-03-23T17:35:44;7.35;;;2.22;;
48859;SDS011;34679;51.436;-2.518;2024-03-23T17:38:10;6.80;;;1.30;;
48859;SDS011;34679;51.436;-2.518;2024-03-23T17:40:36;6.70;;;1.48;;
48859;SDS011;34679;51.436;-2.518;2024-03-23T17:43:02;8.82;;;1.45;;
48859;SDS011;34679;51.436;-2.518;2024-03-23T17:45:28;6.45;;;1.00;;
48859;SDS011;34679;51.436;-2.518;2024-03-23T17:47:54;8.32;;;1.20;;
48859;SDS011;34679;51.436;-2.518;2024-03-23T17:50:21;5.75;;;1.45;;
48859;SDS011;34679;51.436;-2.518;2024-03-23T17:52:47;6.70;;;1.23;;
48859;SDS011;34679;51.436;-2.518;2024-03-23T17:55:13;8.05;;;1.30;;
48859;SDS011;34679;51.436;-2.518;2024-03-23T17:57:39;6.38;;;1.05;;
48859;SDS011;34679;51.436;-2.518;2024-03-23T18:00:05;7.70;;;1.27;;
48859;SDS011;34679;51.436;-2.518;2024-03-23T18:02:32;7.47;;;1.20;;
48859;SDS011;34679;51.436;-2.518;2024-03-23T18:04:59;5.22;;;1.30;;
48859;SDS011;34679;51.436;-2.518;2024-03-23T18:07:25;9.23;;;1.23;;
48859;SDS011;34679;51.436;-2.518;2024-03-23T18:09:51;2.80;;;1.15;;
48859;SDS011;34679;51.436;-2.518;2024-03-23T18:12:16;8.32;;;1.17;;
48859;SDS011;34679;51.436;-2.518;2024-03-23T18:14:43;6.80;;;1.08;;
48859;SDS011;34679;51.436;-2.518;2024-03-23T18:17:09;7.65;;;1.75;;
48859;SDS011;34679;51.436;-2.518;2024-03-23T18:19:34;6.22;;;1.73;;
48859;SDS011;34679;51.436;-2.518;2024-03-23T18:22:00;13.45;;;1.67;;
48859;SDS011;34679;51.436;-2.518;2024-03-23T18:24:26;9.20;;;1.25;;
48859;SDS011;34679;51.436;-2.518;2024-03-23T18:26:52;5.78;;;1.27;;
48859;SDS011;34679;51.436;-2.518;2024-03-23T18:29:17;13.13;;;2.22;;
48859;SDS011;34679;51.436;-2.518;2024-03-23T18:31:44;7.60;;;1.50;;
48859;SDS011;34679;51.436;-2.518;2024-03-23T18:34:10;10.85;;;2.72;;
48859;SDS011;34679;51.436;-2.518;2024-03-23T18:36:36;8.27;;;2.58;;
48859;SDS011;34679;51.436;-2.518;2024-03-23T18:39:01;10.13;;;2.13;;
48859;SDS011;34679;51.436;-2.518;2024-03-23T18:41:28;7.95;;;2.60;;
48859;SDS011;34679;51.436;-2.518;2024-03-23T18:43:55;9.45;;;2.88;;
48859;SDS011;34679;51.436;-2.518;2024-03-23T18:46:21;6.45;;;1.85;;
48859;SDS011;34679;51.436;-2.518;2024-03-23T18:48:47;8.05;;;2.00;;
48859;SDS011;34679;51.436;-2.518;2024-03-23T18:51:13;13.52;;;1.92;;
48859;SDS011;34679;51.436;-2.518;2024-03-23T18:53:38;7.95;;;1.55;;
48859;SDS011;34679;51.436;-2.518;2024-03-23T18:56:04;7.97;;;1.73;;
48859;SDS011;34679;51.436;-2.518;2024-03-23T18:58:30;11.23;;;2.58;;
48859;SDS011;34679;51.436;-2.518;2024-03-23T19:00:57;7.82;;;2.05;;
48859;SDS011;34679;51.436;-2.518;2024-03-23T19:03:28;7.40;;;2.10;;
48859;SDS011;34679;51.436;-2.518;2024-03-23T19:05:54;7.68;;;1.83;;
48859;SDS011;34679;51.436;-2.518;2024-03-23T19:08:20;6.65;;;1.85;;
48859;SDS011;34679;51.436;-2.518;2024-03-23T19:11:08;11.50;;;2.50;;
48859;SDS011;34679;51.436;-2.518;2024-03-23T19:13:33;10.82;;;1.63;;
48859;SDS011;34679;51.436;-2.518;2024-03-23T19:16:00;6.15;;;1.65;;
48859;SDS011;34679;51.436;-2.518;2024-03-23T19:18:26;5.38;;;1.50;;
48859;SDS011;34679;51.436;-2.518;2024-03-23T19:20:52;9.32;;;2.60;;
48859;SDS011;34679;51.436;-2.518;2024-03-23T19:23:19;14.00;;;3.05;;
48859;SDS011;34679;51.436;-2.518;2024-03-23T19:25:51;9.85;;;2.30;;
48859;SDS011;34679;51.436;-2.518;2024-03-23T19:28:20;9.55;;;1.77;;
48859;SDS011;34679;51.436;-2.518;2024-03-23T19:30:50;10.25;;;2.25;;
48859;SDS011;34679;51.436;-2.518;2024-03-23T19:33:16;9.15;;;2.45;;
48859;SDS011;34679;51.436;-2.518;2024-03-23T19:35:42;7.60;;;1.95;;
48859;SDS011;34679;51.436;-2.518;2024-03-23T19:38:08;10.43;;;2.42;;
48859;SDS011;34679;51.436;-2.518;2024-03-23T19:40:34;9.07;;;1.85;;
48859;SDS011;34679;51.436;-2.518;2024-03-23T19:43:00;9.73;;;2.22;;
48859;SDS011;34679;51.436;-2.518;2024-03-23T19:45:26;11.55;;;2.80;;
48859;SDS011;34679;51.436;-2.518;2024-03-23T19:47:52;14.95;;;2.50;;
48859;SDS011;34679;51.436;-2.518;2024-03-23T19:50:17;15.73;;;3.00;;
48859;SDS011;34679;51.436;-2.518;2024-03-23T19:52:45;15.32;;;2.45;;
48859;SDS011;34679;51.436;-2.518;2024-03-23T19:55:13;8.65;;;2.20;;
48859;SDS011;34679;51.436;-2.518;2024-03-23T19:57:39;13.80;;;2.60;;
48859;SDS011;34679;51.436;-2.518;2024-03-23T20:00:04;9.20;;;2.28;;
48859;SDS011;34679;51.436;-2.518;2024-03-23T20:02:32;5.13;;;2.08;;
48859;SDS011;34679;51.436;-2.518;2024-03-23T20:04:57;14.32;;;2.72;;
48859;SDS011;34679;51.436;-2.518;2024-03-23T20:07:25;9.60;;;2.20;;
48859;SDS011;34679;51.436;-2.518;2024-03-23T20:09:51;9.68;;;2.03;;
48859;SDS011;34679;51.436;-2.518;2024-03-23T20:12:16;9.65;;;1.90;;
48859;SDS011;34679;51.436;-2.518;2024-03-23T20:14:42;7.97;;;1.98;;
48859;SDS011;34679;51.436;-2.518;2024-03-23T20:17:10;11.55;;;2.80;;
48859;SDS011;34679;51.436;-2.518;2024-03-23T20:19:35;9.98;;;2.67;;
48859;SDS011;34679;51.436;-2.518;2024-03-23T20:22:02;14.18;;;2.78;;
48859;SDS011;34679;51.436;-2.518;2024-03-23T20:24:27;7.07;;;2.30;;